createdAt,value
2023-04-16T00:01:58.973Z,10.02
2023-04-16T00:06:59.714Z,10.05
2023-04-16T00:12:00.398Z,10.05
2023-04-16T00:17:01.222Z,10.05
2023-04-16T00:22:01.916Z,10.02
2023-04-16T00:27:02.620Z,10.01
2023-04-16T00:32:03.430Z,10.04
2023-04-16T00:37:04.170Z,10.04
2023-04-16T00:42:04.962Z,10.04
2023-04-16T00:47:05.670Z,10.04
2023-04-16T00:52:06.405Z,10.04
2023-04-16T00:57:07.090Z,10.04
2023-04-16T01:02:07.992Z,10.02
2023-04-16T01:07:08.761Z,9.97
2023-04-16T01:12:09.462Z,9.99
2023-04-16T01:17:10.174Z,9.97
2023-04-16T01:22:10.911Z,9.96
2023-04-16T01:27:11.610Z,9.93
2023-04-16T01:32:12.342Z,9.99
2023-04-16T01:37:13.090Z,9.97
2023-04-16T01:42:13.770Z,9.90
2023-04-16T01:47:14.499Z,9.93
2023-04-16T01:52:15.222Z,9.91
2023-04-16T01:57:15.963Z,9.89
2023-04-16T02:02:16.736Z,9.86
2023-04-16T02:07:17.456Z,9.79
2023-04-16T02:12:18.177Z,9.78
2023-04-16T02:17:18.923Z,9.81
2023-04-16T02:22:19.606Z,9.78
2023-04-16T02:27:20.334Z,9.81
2023-04-16T02:32:21.074Z,9.76
2023-04-16T02:37:21.790Z,9.74
2023-04-16T02:42:22.480Z,9.69
2023-04-16T02:47:23.214Z,9.65
2023-04-16T02:52:23.912Z,9.61
2023-04-16T02:57:24.651Z,9.58
2023-04-16T03:02:25.450Z,9.58
2023-04-16T03:07:26.269Z,9.58
2023-04-16T03:12:26.953Z,9.56
2023-04-16T03:17:27.717Z,9.51
2023-04-16T03:22:28.396Z,9.47
2023-04-16T03:27:29.111Z,9.36
2023-04-16T03:32:29.866Z,9.35
2023-04-16T03:37:30.538Z,9.35
2023-04-16T03:42:31.262Z,9.33
2023-04-16T03:47:32.038Z,9.31
2023-04-16T03:52:32.731Z,9.29
2023-04-16T03:57:33.390Z,9.24
2023-04-16T04:02:34.256Z,9.28
2023-04-16T04:07:35.002Z,9.24
2023-04-16T04:12:35.674Z,9.26
2023-04-16T04:17:36.353Z,9.23
2023-04-16T04:22:36.979Z,9.21
2023-04-16T04:27:37.628Z,9.23
2023-04-16T04:32:38.319Z,9.24
2023-04-16T04:37:38.949Z,9.31
2023-04-16T04:42:39.624Z,9.29
2023-04-16T04:47:40.346Z,9.33
2023-04-16T04:52:40.984Z,9.29
2023-04-16T04:57:41.625Z,9.21
2023-04-16T05:02:42.364Z,9.18
2023-04-16T05:07:43.056Z,9.23
2023-04-16T05:12:43.724Z,9.21
2023-04-16T05:17:44.406Z,9.20
2023-04-16T05:22:45.047Z,9.18
2023-04-16T05:27:45.708Z,9.18
2023-04-16T05:32:53.550Z,9.15
2023-04-16T05:37:47.159Z,9.14
2023-04-16T05:42:48.025Z,9.23
2023-04-16T05:47:48.691Z,9.29
2023-04-16T05:52:49.379Z,9.28
2023-04-16T05:57:50.031Z,9.28
2023-04-16T06:02:50.751Z,9.43
2023-04-16T06:07:51.501Z,9.48
2023-04-16T06:12:52.179Z,9.56
2023-04-16T06:17:52.841Z,9.64
2023-04-16T06:22:53.500Z,9.57
2023-04-16T06:27:54.172Z,9.65
2023-04-16T06:32:54.913Z,9.66
2023-04-16T06:37:55.586Z,9.60
2023-04-16T06:42:56.224Z,9.68
2023-04-16T06:47:57.028Z,9.68
2023-04-16T06:52:57.698Z,9.75
2023-04-16T06:57:58.349Z,9.76
2023-04-16T07:02:59.146Z,9.78
2023-04-16T07:07:59.805Z,9.83
2023-04-16T07:13:00.496Z,9.78
2023-04-16T07:18:01.196Z,9.71
2023-04-16T07:23:01.878Z,9.72
2023-04-16T07:28:02.526Z,9.78
2023-04-16T07:33:03.247Z,9.71
2023-04-16T07:38:03.861Z,9.66
2023-04-16T07:43:04.529Z,9.53
2023-04-16T07:48:05.244Z,9.58
2023-04-16T07:53:06.035Z,9.66
2023-04-16T07:58:06.670Z,9.74
2023-04-16T08:03:07.491Z,9.57
2023-04-16T08:08:08.191Z,9.56
2023-04-16T08:13:08.961Z,9.56
2023-04-16T08:18:09.711Z,9.54
2023-04-16T08:23:10.356Z,9.60
2023-04-16T08:28:11.019Z,9.61
2023-04-16T08:33:11.737Z,9.58
2023-04-16T08:38:12.367Z,9.61
2023-04-16T08:43:13.031Z,9.64
2023-04-16T08:48:13.677Z,9.76
2023-04-16T08:53:14.384Z,9.74
2023-04-16T08:58:15.034Z,9.74
2023-04-16T09:03:15.783Z,9.75
2023-04-16T09:08:16.457Z,9.91
2023-04-16T09:13:17.135Z,10.17
2023-04-16T09:18:17.789Z,10.29
2023-04-16T09:23:18.443Z,10.29
2023-04-16T09:28:19.133Z,10.27
2023-04-16T09:33:19.778Z,10.07
2023-04-16T09:38:20.439Z,10.05
2023-04-16T09:43:21.135Z,10.01
2023-04-16T09:48:21.774Z,10.07
2023-04-16T09:53:22.444Z,10.26
2023-04-16T09:58:23.144Z,10.36
2023-04-16T10:03:23.851Z,10.44
2023-04-16T10:08:24.704Z,10.40
2023-04-16T10:13:25.428Z,10.32
2023-04-16T10:18:26.026Z,10.55
2023-04-16T10:23:26.716Z,10.47
2023-04-16T10:28:27.377Z,10.56
2023-04-16T10:33:28.017Z,10.73
2023-04-16T10:38:28.702Z,10.59
2023-04-16T10:43:29.389Z,10.64
2023-04-16T10:48:38.716Z,10.82
2023-04-16T10:53:31.571Z,11.06
2023-04-16T10:58:31.266Z,11.19
2023-04-16T11:03:32.021Z,11.52
2023-04-16T11:08:34.970Z,11.69
2023-04-16T11:13:33.152Z,11.51
2023-04-16T11:18:33.810Z,11.32
2023-04-16T11:23:34.480Z,11.22
2023-04-16T11:28:35.123Z,11.21
2023-04-16T11:33:42.808Z,11.28
2023-04-16T11:38:36.406Z,11.36
2023-04-16T11:43:37.073Z,11.37
2023-04-16T11:48:37.757Z,11.36
2023-04-16T11:53:38.442Z,11.46
2023-04-16T11:58:39.077Z,11.44
2023-04-16T12:03:40.340Z,11.28
2023-04-16T12:08:40.744Z,11.25
2023-04-16T12:13:41.427Z,11.04
2023-04-16T12:18:42.076Z,10.94
2023-04-16T12:23:42.741Z,10.78
2023-04-16T12:28:43.391Z,10.81
2023-04-16T12:33:44.072Z,10.81
2023-04-16T12:38:44.748Z,10.78
2023-04-16T12:43:45.398Z,10.78
2023-04-16T12:48:46.051Z,10.76
2023-04-16T12:53:46.736Z,10.74
2023-04-16T12:58:47.419Z,10.74
2023-04-16T13:03:48.399Z,10.71
2023-04-16T13:08:48.657Z,10.61
2023-04-16T13:13:49.335Z,10.52
2023-04-16T13:18:50.014Z,10.66
2023-04-16T13:23:50.679Z,10.78
2023-04-16T13:28:51.336Z,10.88
2023-04-16T13:33:52.026Z,10.97
2023-04-16T13:38:52.658Z,11.02
2023-04-16T13:43:53.329Z,11.11
2023-04-16T13:48:53.990Z,11.29
2023-04-16T13:53:54.700Z,11.39
2023-04-16T13:58:55.316Z,11.64
2023-04-16T14:03:56.078Z,11.61
2023-04-16T14:08:56.711Z,11.60
2023-04-16T14:13:57.390Z,11.49
2023-04-16T14:18:58.040Z,11.36
2023-04-16T14:23:58.701Z,11.27
2023-04-16T14:28:59.377Z,11.24
2023-04-16T14:34:00.045Z,11.29
2023-04-16T14:39:00.674Z,11.28
2023-04-16T14:44:01.360Z,11.19
2023-04-16T14:49:02.129Z,11.11
2023-04-16T14:54:02.780Z,10.99
2023-04-16T14:59:03.447Z,10.92
2023-04-16T15:04:04.173Z,10.82
2023-04-16T15:09:04.829Z,10.71
2023-04-16T15:14:05.526Z,10.73
2023-04-16T15:19:06.156Z,10.73
2023-04-16T15:24:06.841Z,10.67
2023-04-16T15:29:07.567Z,10.70
2023-04-16T15:34:08.474Z,10.66
2023-04-16T15:39:09.085Z,10.64
2023-04-16T15:44:09.294Z,10.63
2023-04-16T15:49:10.179Z,10.64
2023-04-16T15:54:10.493Z,10.68
2023-04-16T15:59:11.357Z,10.66
2023-04-16T16:04:11.908Z,10.61
2023-04-16T16:09:12.878Z,10.56
2023-04-16T16:14:13.075Z,10.47
2023-04-16T16:19:13.788Z,10.44
2023-04-16T16:24:14.462Z,10.40
2023-04-16T16:29:15.161Z,10.38
2023-04-16T16:34:20.888Z,10.32
2023-04-16T16:39:17.634Z,10.20
2023-04-16T16:44:17.284Z,10.09
2023-04-16T16:49:17.973Z,10.07
2023-04-16T16:54:18.629Z,10.04
2023-04-16T16:59:19.377Z,9.99
2023-04-16T17:04:20.593Z,9.96
2023-04-16T17:09:20.818Z,9.89
2023-04-16T17:14:21.515Z,9.91
2023-04-16T17:19:22.235Z,10.04
2023-04-16T17:24:22.879Z,9.96
2023-04-16T17:29:23.592Z,9.89
2023-04-16T17:34:24.260Z,9.83
2023-04-16T17:39:24.935Z,9.76
2023-04-16T17:44:25.626Z,9.74
2023-04-16T17:49:26.344Z,9.76
2023-04-16T17:54:26.985Z,9.83
2023-04-16T17:59:27.758Z,9.84
2023-04-16T18:04:28.597Z,9.84
2023-04-16T18:09:29.354Z,9.72
2023-04-16T18:14:30.015Z,9.66
2023-04-16T18:19:30.676Z,9.60
2023-04-16T18:24:31.380Z,9.53
2023-04-16T18:29:33.934Z,9.47
2023-04-16T18:34:32.754Z,9.47
2023-04-16T18:39:33.428Z,9.50
2023-04-16T18:44:34.162Z,9.42
2023-04-16T18:49:34.858Z,9.42
2023-04-16T18:54:35.564Z,9.42
2023-04-16T18:59:36.313Z,9.40
2023-04-16T19:04:37.292Z,9.43
2023-04-16T19:09:37.497Z,9.42
2023-04-16T19:14:38.229Z,9.43
2023-04-16T19:19:38.952Z,9.38
2023-04-16T19:24:39.684Z,9.36
2023-04-16T19:29:40.384Z,9.36
2023-04-16T19:34:41.106Z,9.32
2023-04-16T19:39:41.817Z,9.26
2023-04-16T19:44:42.551Z,9.15
2023-04-16T19:49:43.252Z,9.18
2023-04-16T19:54:43.969Z,9.21
2023-04-16T19:59:44.666Z,9.18
2023-04-16T20:04:45.414Z,9.10
2023-04-16T20:09:46.113Z,9.13
2023-04-16T20:14:46.823Z,9.08
2023-04-16T20:19:47.546Z,9.10
2023-04-16T20:24:48.389Z,9.08
2023-04-16T20:29:49.067Z,9.05
2023-04-16T20:34:49.807Z,8.98
2023-04-16T20:39:50.480Z,8.96
2023-04-16T20:44:51.218Z,8.95
2023-04-16T20:49:51.916Z,8.83
2023-04-16T20:54:52.634Z,8.81
2023-04-16T20:59:53.329Z,8.71
2023-04-16T21:04:54.081Z,8.71
2023-04-16T21:09:54.767Z,8.66
2023-04-16T21:14:55.479Z,8.68
2023-04-16T21:20:03.233Z,8.62
2023-04-16T21:24:56.927Z,8.59
2023-04-16T21:29:57.648Z,8.53
2023-04-16T21:34:58.365Z,8.53
2023-04-16T21:39:59.170Z,8.52
2023-04-16T21:44:59.874Z,8.52
2023-04-16T21:50:00.694Z,8.48
2023-04-16T21:55:01.485Z,8.45
2023-04-16T22:00:02.206Z,8.37
2023-04-16T22:05:02.913Z,8.33
2023-04-16T22:10:03.646Z,8.34
2023-04-16T22:15:04.419Z,8.34
2023-04-16T22:20:05.233Z,8.33
2023-04-16T22:25:06.116Z,8.25
2023-04-16T22:30:06.826Z,8.28
2023-04-16T22:35:07.541Z,8.26
2023-04-16T22:40:08.507Z,8.30
2023-04-16T22:45:08.708Z,8.23
2023-04-16T22:50:09.428Z,8.22
2023-04-16T22:55:10.152Z,8.20
2023-04-16T23:00:10.857Z,8.25
2023-04-16T23:05:11.613Z,8.20
2023-04-16T23:10:12.323Z,8.10
2023-04-16T23:15:13.045Z,8.15
2023-04-16T23:20:13.758Z,8.07
2023-04-16T23:25:14.473Z,8.07
2023-04-16T23:30:15.203Z,8.05
2023-04-16T23:35:15.911Z,8.10
2023-04-16T23:40:16.633Z,8.08
2023-04-16T23:45:17.445Z,7.97
2023-04-16T23:50:18.181Z,7.98
2023-04-16T23:55:18.894Z,7.97
